Fort Davis, TX

3:13 AM CST on February 06, 2016 (GMT -0600)
3 Dog Ranch | | Change Station
CLOSE
Current Station
Personal Weather Station
Location: Fort Davis, TX
Elevation: 5274 ft
Nearby Weather Stations

Elev 5274 ft 30.61 °N, 103.97 °W | Updated 6 seconds ago

Partly Cloudy
Partly Cloudy
19.2 °F
Feels Like 19 °F
N
2.7
Wind Variable Wind from NW
Gusts 2.7 mph

Today
High -- | Low -- °F
--% Chance of Precip.
Yesterday
High -- | Low -- °F
Precip. -- in
Pressure 30.44 in
Visibility 10.0 miles
Clouds Clear
Windchill 19 °F
Dew Point -12 °F
Humidity 23%
Rainfall 0.00 in
Snow Depth Not available.
7:43 AM 6:35 PM
Waning Crescent, 6% visible
METAR KMRF 060856Z AUTO 35007KT 10SM CLR M06/M13 A3043 RMK AO2 SLP307 T10611128 58003 FZRANO
Pressure 30.44 in
Visibility 10.0 miles
Clouds Clear
Windchill 19 °F
Dew Point -12 °F
Humidity 23%
Rainfall 0.00 in
Snow Depth Not available.
7:43 AM 6:35 PM
Waning Crescent, 6% visible
METAR KMRF 060856Z AUTO 35007KT 10SM CLR M06/M13 A3043 RMK AO2 SLP307 T10611128 58003 FZRANO

10-Day Weather Forecast

Almanac

Astronomy

Feb. 06, 2016 Rise Set
Actual Time
Civil Twilight
Nautical Twilight
Astronomical Twilight
Moon
Length of Visible Light
Length of Day
Tomorrow will be .
, % of the Moon is Illuminated

Today's Extremes

State Highs State Lows

Community

WunderPhotos

Upload Photos

1,890,933 photos uploaded!

WunderBlog® & News

Nearby

Air Quality

  Air Quality AQ Index Pollutant
Not available.

Snow Depth

Station Depth Elevation

Earthquake Activity

City Distance Mag. Time & Date
Minimum magnitude displayed is 2.5.

Coastal Water Temperatures

Place Temperature

Stations

Nearby Weather Stations

Station Location Temp. Windchill Dew Point Humidity Wind Precip. Elev Updated Type
                   

Watches & Warnings

There are currently no watches in effect.